createdAt,value
2023-07-20T00:00:54.945Z,100525.06
2023-07-20T00:03:26.301Z,100528.63
2023-07-20T00:05:53.707Z,100536.72
2023-07-20T00:08:21.015Z,100534.19
2023-07-20T00:10:48.321Z,100526.06
2023-07-20T00:13:17.012Z,100526.91
2023-07-20T00:15:44.215Z,100533.16
2023-07-20T00:18:11.476Z,100527.75
2023-07-20T00:20:38.739Z,100525.75
2023-07-20T00:23:06.158Z,100522.34
2023-07-20T00:25:34.337Z,100524.91
2023-07-20T00:28:02.312Z,100530.31
2023-07-20T00:30:29.578Z,100517.66
2023-07-20T00:32:56.905Z,100521.19
2023-07-20T00:35:24.151Z,100528.63
2023-07-20T00:37:51.357Z,100526.59
2023-07-20T00:40:19.088Z,100525.75
2023-07-20T00:42:46.315Z,100521.19
2023-07-20T00:45:13.548Z,100531.31
2023-07-20T00:47:40.972Z,100527.59
2023-07-20T00:50:08.634Z,100539.06
2023-07-20T00:52:35.851Z,100541.78
2023-07-20T00:55:03.107Z,100534.03
2023-07-20T00:57:30.373Z,100533.84
2023-07-20T00:59:57.584Z,100542.78
2023-07-20T01:02:24.897Z,100541.94
2023-07-20T01:04:53.648Z,100529.28
2023-07-20T01:07:44.592Z,100525.56
2023-07-20T01:10:13.425Z,100517.47
2023-07-20T01:12:44.146Z,100522.03
2023-07-20T01:15:13.182Z,100522.03
2023-07-20T01:17:40.753Z,100519.31
2023-07-20T01:20:09.461Z,100517.66
2023-07-20T01:23:16.089Z,100516.63
2023-07-20T01:26:13.405Z,100529.28
2023-07-20T01:29:09.886Z,100523.22
2023-07-20T01:31:38.600Z,100527.44
2023-07-20T01:34:07.796Z,100539.06
2023-07-20T01:36:36.770Z,100532.00
2023-07-20T01:39:05.502Z,100526.59
2023-07-20T01:41:32.875Z,100522.88
2023-07-20T01:44:00.716Z,100527.44
2023-07-20T01:46:28.203Z,100517.66
2023-07-20T01:48:56.288Z,100525.56
2023-07-20T01:51:23.630Z,100522.88
2023-07-20T01:53:50.875Z,100515.63
2023-07-20T01:56:18.277Z,100521.19
2023-07-20T01:58:45.583Z,100517.66
2023-07-20T02:01:12.879Z,100522.88
2023-07-20T02:03:40.164Z,100523.88
2023-07-20T02:06:07.396Z,100528.28
2023-07-20T02:08:34.667Z,100530.97
2023-07-20T02:11:01.907Z,100525.56
2023-07-20T02:13:29.112Z,100526.59
2023-07-20T02:15:56.358Z,100523.75
2023-07-20T02:18:23.659Z,100529.28
2023-07-20T02:20:50.879Z,100522.88
2023-07-20T02:23:18.665Z,100529.28
2023-07-20T02:25:45.982Z,100528.28
2023-07-20T02:28:15.730Z,100530.81
2023-07-20T02:30:42.960Z,100528.13
2023-07-20T02:33:10.222Z,100527.59
2023-07-20T02:35:37.529Z,100521.19
2023-07-20T02:38:04.760Z,100529.28
2023-07-20T02:40:31.986Z,100528.13
2023-07-20T02:42:59.218Z,100529.16
2023-07-20T02:45:26.750Z,100537.06
2023-07-20T02:47:54.028Z,100529.97
2023-07-20T02:50:21.257Z,100539.78
2023-07-20T02:52:48.549Z,100541.78
2023-07-20T02:55:15.875Z,100542.66
2023-07-20T02:57:43.253Z,100542.66
2023-07-20T03:00:11.045Z,100549.88
2023-07-20T03:02:38.271Z,100548.88
2023-07-20T03:05:08.237Z,100548.06
2023-07-20T03:07:35.664Z,100554.44
2023-07-20T03:10:04.036Z,100556.16
2023-07-20T03:12:31.263Z,100557.00
2023-07-20T03:14:58.464Z,100556.81
2023-07-20T03:17:25.714Z,100553.59
2023-07-20T03:19:53.086Z,100554.44
2023-07-20T03:22:20.295Z,100559.84
2023-07-20T03:24:47.498Z,100566.09
2023-07-20T03:27:14.762Z,100566.97
2023-07-20T03:29:42.306Z,100573.19
2023-07-20T03:32:10.446Z,100570.66
2023-07-20T03:34:37.661Z,100573.19
2023-07-20T03:37:05.873Z,100579.59
2023-07-20T03:39:33.251Z,100567.78
2023-07-20T03:42:00.500Z,100568.63
2023-07-20T03:44:28.075Z,100566.97
2023-07-20T03:46:55.459Z,100567.78
2023-07-20T03:49:22.675Z,100566.97
2023-07-20T03:51:50.045Z,100563.38
2023-07-20T03:54:17.303Z,100577.91
2023-07-20T03:56:44.541Z,100583.16
2023-07-20T03:59:12.072Z,100584.00
2023-07-20T04:01:41.405Z,100582.28
2023-07-20T04:04:09.556Z,100578.59
2023-07-20T04:06:37.194Z,100578.75
2023-07-20T04:09:05.991Z,100585.88
2023-07-20T04:11:33.470Z,100583.31
2023-07-20T04:14:00.712Z,100585.00
2023-07-20T04:16:28.287Z,100578.59
2023-07-20T04:18:58.996Z,100582.28
2023-07-20T04:21:28.122Z,100583.16
2023-07-20T04:23:55.593Z,100585.00
2023-07-20T04:26:23.200Z,100585.88
2023-07-20T04:28:51.936Z,100590.38
2023-07-20T04:31:19.239Z,100585.69
2023-07-20T04:33:46.611Z,100591.09
2023-07-20T04:36:15.748Z,100589.41
2023-07-20T04:38:43.306Z,100591.09
2023-07-20T04:41:10.536Z,100593.09
2023-07-20T04:43:37.756Z,100597.50
2023-07-20T04:46:05.027Z,100593.97
2023-07-20T04:48:32.289Z,100593.78
2023-07-20T04:50:59.558Z,100590.38
2023-07-20T04:53:26.777Z,100593.66
2023-07-20T04:55:55.267Z,100583.81
2023-07-20T04:58:23.212Z,100587.38
2023-07-20T05:00:51.000Z,100594.47
2023-07-20T05:03:18.670Z,100602.59
2023-07-20T05:05:48.297Z,100601.56
2023-07-20T05:08:17.425Z,100595.47
2023-07-20T05:10:44.814Z,100604.44
2023-07-20T05:13:12.086Z,100598.03
2023-07-20T05:15:39.670Z,100600.72
2023-07-20T05:18:09.493Z,100598.88
2023-07-20T05:20:39.807Z,100603.44
2023-07-20T05:23:07.050Z,100597.84
2023-07-20T05:25:34.585Z,100607.81
2023-07-20T05:28:01.841Z,100604.28
2023-07-20T05:30:30.255Z,100608.00
2023-07-20T05:32:57.759Z,100609.53
2023-07-20T05:35:25.104Z,100604.97
2023-07-20T05:37:52.330Z,100615.78
2023-07-20T05:40:20.847Z,100612.91
2023-07-20T05:42:49.911Z,100622.00
2023-07-20T05:45:17.210Z,100623.56
2023-07-20T05:47:44.529Z,100628.78
2023-07-20T05:50:12.182Z,100624.53
2023-07-20T05:52:40.242Z,100628.97
2023-07-20T05:55:08.156Z,100617.44
2023-07-20T05:57:36.405Z,100627.09
2023-07-20T06:00:04.782Z,100624.41
2023-07-20T06:02:33.994Z,100632.50
2023-07-20T06:05:01.400Z,100629.63
2023-07-20T06:07:37.775Z,100634.88
2023-07-20T06:10:06.865Z,100635.09
2023-07-20T06:12:34.680Z,100627.31
2023-07-20T06:15:06.462Z,100631.38
2023-07-20T06:17:34.294Z,100640.50
2023-07-20T06:20:01.590Z,100643.34
2023-07-20T06:22:28.876Z,100641.50
2023-07-20T06:24:56.457Z,100644.19
2023-07-20T06:27:23.681Z,100641.50
2023-07-20T06:29:50.971Z,100641.50
2023-07-20T06:32:18.270Z,100642.69
2023-07-20T06:34:45.488Z,100643.25
2023-07-20T06:37:12.795Z,100627.66
2023-07-20T06:42:10.120Z,100636.50
2023-07-20T06:44:37.336Z,100645.59
2023-07-20T06:47:04.846Z,100651.19
2023-07-20T06:49:32.096Z,100657.09
2023-07-20T06:51:59.339Z,100655.25
2023-07-20T06:54:26.598Z,100644.75
2023-07-20T06:59:25.415Z,100651.38
2023-07-20T07:01:52.957Z,100645.81
2023-07-20T07:04:20.319Z,100644.44
2023-07-20T07:06:47.689Z,100644.63
2023-07-20T07:09:15.169Z,100657.63
2023-07-20T07:11:42.540Z,100648.47
2023-07-20T07:14:09.882Z,100635.44
2023-07-20T07:16:39.397Z,100646.66
2023-07-20T07:19:08.601Z,100656.94
2023-07-20T07:21:35.809Z,100653.72
2023-07-20T07:24:03.085Z,100652.22
2023-07-20T07:26:30.313Z,100652.97
2023-07-20T07:28:57.612Z,100665.84
2023-07-20T07:31:26.622Z,100661.06
2023-07-20T07:33:53.903Z,100657.22
2023-07-20T07:36:22.477Z,100657.00
2023-07-20T07:39:27.424Z,100658.91
2023-07-20T07:41:37.779Z,100651.31
2023-07-20T07:44:05.154Z,100653.94
2023-07-20T07:46:32.512Z,100661.34
2023-07-20T07:48:59.889Z,100655.09
2023-07-20T07:51:28.317Z,100653.69
2023-07-20T07:53:56.124Z,100655.63
2023-07-20T07:56:24.884Z,100655.94
2023-07-20T07:58:53.098Z,100656.66
2023-07-20T08:01:20.708Z,100668.50
2023-07-20T08:03:48.822Z,100673.53
2023-07-20T08:06:16.347Z,100678.56
2023-07-20T08:08:44.182Z,100679.09
2023-07-20T08:11:12.275Z,100676.41
2023-07-20T08:13:40.644Z,100678.41
2023-07-20T08:16:07.937Z,100678.03
2023-07-20T08:18:35.331Z,100682.34
2023-07-20T08:21:02.733Z,100682.03
2023-07-20T08:23:30.240Z,100682.88
2023-07-20T08:25:57.683Z,100684.81
2023-07-20T08:28:25.180Z,100686.25
2023-07-20T08:30:52.485Z,100687.97
2023-07-20T08:33:21.001Z,100681.56
2023-07-20T08:35:49.045Z,100687.56
2023-07-20T08:38:16.759Z,100692.59
2023-07-20T08:40:48.442Z,100692.94
2023-07-20T08:43:19.769Z,100697.53
2023-07-20T08:45:47.349Z,100701.72
2023-07-20T08:48:15.374Z,100702.25
2023-07-20T08:50:43.408Z,100698.59
2023-07-20T08:53:11.938Z,100692.59
2023-07-20T08:55:39.341Z,100689.03
2023-07-20T08:58:08.136Z,100690.50
2023-07-20T09:00:35.509Z,100690.94
2023-07-20T09:03:04.097Z,100684.38
2023-07-20T09:08:01.204Z,100690.41
2023-07-20T09:10:28.511Z,100686.94
2023-07-20T09:12:56.641Z,100683.78
2023-07-20T09:15:24.471Z,100687.50
2023-07-20T09:17:54.777Z,100691.34
2023-07-20T09:20:23.565Z,100681.16
2023-07-20T09:22:53.946Z,100694.28
2023-07-20T09:25:26.515Z,100684.75
2023-07-20T09:27:55.357Z,100694.88
2023-07-20T09:30:31.728Z,100687.31
2023-07-20T09:33:00.060Z,100690.47
2023-07-20T09:35:35.376Z,100691.72
2023-07-20T09:50:50.810Z,100697.44
2023-07-20T09:53:19.251Z,100697.97
2023-07-20T09:55:48.612Z,100707.56
2023-07-20T09:58:16.961Z,100698.94
2023-07-20T10:03:23.318Z,100703.50
2023-07-20T10:05:58.212Z,100700.50
2023-07-20T10:11:02.118Z,100702.03
2023-07-20T10:13:30.919Z,100697.72
2023-07-20T10:16:04.296Z,100700.25
2023-07-20T10:18:52.303Z,100696.56
2023-07-20T10:23:51.954Z,100693.09
2023-07-20T10:26:19.236Z,100680.97
2023-07-20T10:28:46.660Z,100689.03
2023-07-20T10:31:16.760Z,100690.16
2023-07-20T10:33:44.477Z,100691.66
2023-07-20T10:38:46.943Z,100695.88
2023-07-20T10:41:41.239Z,100690.66
2023-07-20T10:44:10.572Z,100694.59
2023-07-20T10:46:46.567Z,100689.66
2023-07-20T10:49:16.418Z,100688.28
2023-07-20T10:51:49.229Z,100691.00
2023-07-20T10:54:19.845Z,100701.72
2023-07-20T10:56:49.592Z,100700.69
2023-07-20T10:59:29.379Z,100703.03
2023-07-20T11:02:01.113Z,100703.44
2023-07-20T11:04:45.662Z,100712.69
2023-07-20T11:07:37.424Z,100709.88
2023-07-20T11:10:19.218Z,100709.47
2023-07-20T11:13:22.676Z,100721.94
2023-07-20T11:16:04.812Z,100712.94
2023-07-20T11:18:35.258Z,100718.69
2023-07-20T11:21:02.655Z,100714.22
2023-07-20T11:23:31.996Z,100715.06
2023-07-20T11:26:01.467Z,100718.88
2023-07-20T11:28:32.060Z,100715.91
2023-07-20T11:30:59.337Z,100716.91
2023-07-20T11:33:27.536Z,100707.13
2023-07-20T11:35:55.028Z,100710.97
2023-07-20T11:38:22.407Z,100707.56
2023-07-20T11:40:49.676Z,100700.03
2023-07-20T11:45:47.578Z,100699.84
2023-07-20T11:48:18.339Z,100695.84
2023-07-20T11:50:45.939Z,100688.56
2023-07-20T11:53:13.570Z,100688.84
2023-07-20T11:55:44.066Z,100698.09
2023-07-20T11:58:11.746Z,100691.03
2023-07-20T12:00:41.367Z,100696.50
2023-07-20T12:03:14.778Z,100696.69
2023-07-20T12:08:12.620Z,100702.50
2023-07-20T12:10:45.114Z,100709.31
2023-07-20T12:13:13.064Z,100700.63
2023-07-20T12:15:40.471Z,100703.69
2023-07-20T12:18:07.843Z,100707.69
2023-07-20T12:20:37.999Z,100704.59
2023-07-20T12:23:10.332Z,100704.22
2023-07-20T12:25:44.386Z,100704.13
2023-07-20T12:28:13.341Z,100696.63
2023-07-20T12:30:41.121Z,100696.50
2023-07-20T12:33:08.813Z,100698.94
2023-07-20T12:35:36.252Z,100691.53
2023-07-20T12:38:04.058Z,100692.13
2023-07-20T12:40:31.376Z,100702.63
2023-07-20T12:42:59.215Z,100687.69
2023-07-20T12:45:26.871Z,100691.00
2023-07-20T12:47:56.829Z,100695.06
2023-07-20T12:50:24.302Z,100694.03
2023-07-20T12:52:51.738Z,100683.88
2023-07-20T12:55:19.575Z,100684.56
2023-07-20T12:57:48.074Z,100691.59
2023-07-20T13:00:16.596Z,100683.44
2023-07-20T13:02:44.654Z,100683.13
2023-07-20T13:05:12.206Z,100685.22
2023-07-20T13:10:13.339Z,100669.88
2023-07-20T13:12:40.690Z,100671.94
2023-07-20T13:15:09.960Z,100670.56
2023-07-20T13:17:38.364Z,100667.44
2023-07-20T13:20:08.398Z,100670.00
2023-07-20T13:22:36.067Z,100670.91
2023-07-20T13:25:03.890Z,100669.47
2023-07-20T13:27:32.849Z,100661.06
2023-07-20T13:30:03.965Z,100664.72
2023-07-20T13:32:34.385Z,100663.19
2023-07-20T13:35:02.801Z,100662.09
2023-07-20T13:37:30.245Z,100663.19
2023-07-20T13:39:57.904Z,100662.56
2023-07-20T13:42:25.270Z,100660.41
2023-07-20T13:44:52.701Z,100673.06
2023-07-20T13:47:21.997Z,100661.94
2023-07-20T13:49:50.121Z,100661.78
2023-07-20T13:55:01.566Z,100664.00
2023-07-20T14:00:03.302Z,100658.47
2023-07-20T14:07:33.294Z,100657.09
2023-07-20T14:12:30.821Z,100655.44
2023-07-20T14:14:58.321Z,100647.34
2023-07-20T14:17:26.750Z,100656.22
2023-07-20T14:19:54.961Z,100647.44
2023-07-20T14:22:22.333Z,100648.19
2023-07-20T14:24:49.680Z,100645.88
2023-07-20T14:27:17.249Z,100634.78
2023-07-20T14:29:44.918Z,100636.59
2023-07-20T14:32:12.577Z,100638.13
2023-07-20T14:34:40.708Z,100647.59
2023-07-20T14:37:08.122Z,100638.53
2023-07-20T14:39:35.601Z,100645.91
2023-07-20T14:42:06.050Z,100638.00
2023-07-20T14:44:36.496Z,100639.38
2023-07-20T14:47:14.293Z,100648.31
2023-07-20T14:49:42.597Z,100645.28
2023-07-20T14:54:40.342Z,100637.28
2023-07-20T14:57:15.420Z,100632.53
2023-07-20T14:59:43.622Z,100638.72
2023-07-20T15:02:11.160Z,100630.56
2023-07-20T15:04:38.708Z,100626.88
2023-07-20T15:07:06.242Z,100631.56
2023-07-20T15:09:35.082Z,100633.47
2023-07-20T15:12:03.036Z,100635.19
2023-07-20T15:14:30.514Z,100647.28
2023-07-20T15:16:57.930Z,100641.13
2023-07-20T15:19:25.195Z,100637.28
2023-07-20T15:21:52.796Z,100656.31
2023-07-20T15:24:20.249Z,100654.94
2023-07-20T15:26:47.689Z,100658.09
2023-07-20T15:34:16.511Z,100657.63
2023-07-20T15:36:43.989Z,100658.28
2023-07-20T15:39:11.598Z,100653.06
2023-07-20T15:41:39.196Z,100650.19
2023-07-20T15:44:06.935Z,100646.66
2023-07-20T15:46:44.070Z,100647.19
2023-07-20T15:49:11.786Z,100638.25
2023-07-20T15:51:42.728Z,100636.91
2023-07-20T15:54:13.205Z,100641.47
2023-07-20T15:56:41.811Z,100640.47
2023-07-20T15:59:12.319Z,100631.69
2023-07-20T16:01:41.408Z,100642.31
2023-07-20T16:04:09.133Z,100639.47
2023-07-20T16:06:37.060Z,100633.22
2023-07-20T16:09:09.263Z,100639.69
2023-07-20T16:11:40.556Z,100641.88
2023-07-20T16:14:08.594Z,100639.88
2023-07-20T16:16:36.535Z,100645.28
2023-07-20T16:19:04.288Z,100638.72
2023-07-20T16:21:33.443Z,100635.88
2023-07-20T16:24:01.334Z,100644.97
2023-07-20T16:26:29.040Z,100645.81
2023-07-20T16:31:26.787Z,100636.41
2023-07-20T16:34:05.923Z,100641.81
2023-07-20T16:36:57.163Z,100638.28
2023-07-20T16:44:22.588Z,100633.56
2023-07-20T16:49:20.243Z,100646.13
2023-07-20T16:51:47.497Z,100639.28
2023-07-20T16:54:16.963Z,100639.47
2023-07-20T16:56:45.558Z,100638.84
2023-07-20T16:59:12.874Z,100639.03
2023-07-20T17:01:40.415Z,100652.38
2023-07-20T17:04:07.708Z,100648.69
2023-07-20T17:06:36.088Z,100650.38
2023-07-20T17:09:03.731Z,100653.06
2023-07-20T17:11:31.036Z,100655.78
2023-07-20T17:13:58.261Z,100650.38
2023-07-20T17:16:25.967Z,100655.78
2023-07-20T17:18:53.899Z,100654.09
2023-07-20T17:21:21.158Z,100655.78
2023-07-20T17:28:51.462Z,100659.22
2023-07-20T17:31:21.217Z,100653.25
2023-07-20T17:33:48.714Z,100666.06
2023-07-20T17:38:47.170Z,100661.50
2023-07-20T17:41:20.269Z,100661.50
2023-07-20T17:43:47.534Z,100662.81
2023-07-20T17:48:45.640Z,100665.44
2023-07-20T17:51:13.218Z,100659.22
2023-07-20T17:53:40.444Z,100671.16
2023-07-20T17:56:08.560Z,100661.06
2023-07-20T17:58:35.791Z,100662.06
2023-07-20T18:01:04.218Z,100668.63
2023-07-20T18:03:31.752Z,100663.22
2023-07-20T18:06:10.499Z,100659.00
2023-07-20T18:08:38.251Z,100656.28
2023-07-20T18:11:06.477Z,100663.16
2023-07-20T18:13:34.011Z,100665.50
2023-07-20T18:16:01.442Z,100657.53
2023-07-20T18:18:29.352Z,100658.56
2023-07-20T18:20:56.751Z,100660.53
2023-07-20T18:23:23.998Z,100660.72
2023-07-20T18:25:51.307Z,100662.03
2023-07-20T18:28:18.834Z,100666.19
2023-07-20T18:30:47.040Z,100670.06
2023-07-20T18:33:14.400Z,100671.06
2023-07-20T18:35:41.935Z,100668.50
2023-07-20T18:38:10.278Z,100669.66
2023-07-20T18:40:37.543Z,100665.28
2023-07-20T18:43:05.064Z,100667.13
2023-07-20T18:45:32.425Z,100673.66
2023-07-20T18:48:00.059Z,100670.97
2023-07-20T18:50:27.527Z,100677.38
2023-07-20T18:53:00.570Z,100670.59
2023-07-20T18:55:28.801Z,100678.84
2023-07-20T18:57:56.364Z,100679.38
2023-07-20T19:00:24.061Z,100680.91
2023-07-20T19:02:51.595Z,100688.72
2023-07-20T19:05:20.097Z,100683.13
2023-07-20T19:07:47.501Z,100687.69
2023-07-20T19:10:15.346Z,100691.41
2023-07-20T19:12:43.014Z,100688.00
2023-07-20T19:15:14.811Z,100685.00
2023-07-20T19:17:42.546Z,100684.31
2023-07-20T19:20:15.991Z,100688.84
2023-07-20T19:22:46.576Z,100691.72
2023-07-20T19:25:14.013Z,100698.66
2023-07-20T19:27:41.907Z,100704.09
2023-07-20T19:30:09.845Z,100703.25
2023-07-20T19:32:37.263Z,100706.66
2023-07-20T19:35:05.149Z,100709.47
2023-07-20T19:37:32.589Z,100707.50
2023-07-20T19:40:00.096Z,100711.75
2023-07-20T19:42:27.391Z,100709.88
2023-07-20T19:44:54.788Z,100713.59
2023-07-20T19:47:22.872Z,100712.75
2023-07-20T19:49:52.775Z,100710.91
2023-07-20T19:52:20.215Z,100710.19
2023-07-20T19:54:48.243Z,100719.44
2023-07-20T19:59:45.825Z,100722.00
2023-07-20T20:02:13.283Z,100722.97
2023-07-20T20:07:13.748Z,100725.13
2023-07-20T20:09:42.300Z,100727.97
2023-07-20T20:12:10.355Z,100733.34
2023-07-20T20:14:37.858Z,100725.56
2023-07-20T20:17:06.828Z,100725.56
2023-07-20T20:19:34.234Z,100729.28
2023-07-20T20:22:03.291Z,100732.09
2023-07-20T20:24:32.024Z,100732.28
2023-07-20T20:26:59.604Z,100731.44
2023-07-20T20:29:28.991Z,100733.13
2023-07-20T20:31:56.440Z,100732.03
2023-07-20T20:34:23.912Z,100734.13
2023-07-20T20:36:51.366Z,100738.38
2023-07-20T20:39:19.372Z,100730.41
2023-07-20T20:41:47.738Z,100737.97
2023-07-20T20:44:19.122Z,100733.56
2023-07-20T20:46:46.889Z,100729.03
2023-07-20T20:49:14.534Z,100737.66
2023-07-20T20:51:43.090Z,100736.97
2023-07-20T20:54:11.492Z,100730.34
2023-07-20T20:56:39.364Z,100738.56
2023-07-20T20:59:07.134Z,100734.75
2023-07-20T21:01:34.363Z,100736.78
2023-07-20T21:04:01.724Z,100733.97
2023-07-20T21:06:29.079Z,100733.25
2023-07-20T21:08:56.575Z,100737.19
2023-07-20T21:11:23.779Z,100737.06
2023-07-20T21:13:50.998Z,100738.88
2023-07-20T21:16:20.943Z,100737.78
2023-07-20T21:18:49.079Z,100739.09
2023-07-20T21:21:16.637Z,100727.88
2023-07-20T21:23:44.109Z,100738.81
2023-07-20T21:26:11.484Z,100739.41
2023-07-20T21:28:38.954Z,100730.06
2023-07-20T21:31:08.343Z,100736.28
2023-07-20T21:33:35.593Z,100738.72
2023-07-20T21:36:02.898Z,100745.13
2023-07-20T21:38:31.540Z,100738.88
2023-07-20T21:40:58.960Z,100740.47
2023-07-20T21:43:26.552Z,100741.16
2023-07-20T21:45:53.947Z,100733.53
2023-07-20T21:48:21.401Z,100742.56
2023-07-20T21:50:52.408Z,100745.25
2023-07-20T21:53:20.040Z,100746.25
2023-07-20T21:55:50.277Z,100745.41
2023-07-20T21:58:20.788Z,100746.25
2023-07-20T22:00:52.018Z,100748.38
2023-07-20T22:03:22.980Z,100751.06
2023-07-20T22:05:53.138Z,100749.38
2023-07-20T22:08:21.114Z,100753.31
2023-07-20T22:10:48.495Z,100753.34
2023-07-20T22:13:17.324Z,100753.34
2023-07-20T22:15:44.630Z,100755.59
2023-07-20T22:18:25.172Z,100756.44
2023-07-20T22:20:59.803Z,100758.00
2023-07-20T22:23:27.438Z,100757.31
2023-07-20T22:25:54.619Z,100759.28
2023-07-20T22:28:21.831Z,100757.16
2023-07-20T22:30:52.488Z,100751.91
2023-07-20T22:33:20.060Z,100763.09
2023-07-20T22:35:47.241Z,100758.97
2023-07-20T22:38:14.481Z,100746.69
2023-07-20T22:40:41.983Z,100753.44
2023-07-20T22:43:09.368Z,100748.63
2023-07-20T22:45:36.609Z,100760.38
2023-07-20T22:48:03.980Z,100754.00
2023-07-20T22:50:31.212Z,100756.94
2023-07-20T22:52:58.419Z,100743.00
2023-07-20T22:55:25.662Z,100747.41
2023-07-20T22:57:55.201Z,100738.84
2023-07-20T23:00:28.018Z,100741.72
2023-07-20T23:02:57.244Z,100740.16
2023-07-20T23:05:25.885Z,100739.44
2023-07-20T23:07:56.246Z,100737.25
2023-07-20T23:10:23.574Z,100744.16
2023-07-20T23:12:51.259Z,100735.97
2023-07-20T23:15:18.902Z,100736.88
2023-07-20T23:17:49.169Z,100739.81
2023-07-20T23:20:19.506Z,100739.41
2023-07-20T23:22:50.911Z,100740.97
2023-07-20T23:25:19.412Z,100738.38
2023-07-20T23:27:46.776Z,100731.06
2023-07-20T23:30:15.003Z,100728.06
2023-07-20T23:32:42.911Z,100732.69
2023-07-20T23:35:11.715Z,100735.69
2023-07-20T23:37:40.292Z,100730.41
2023-07-20T23:40:13.720Z,100718.59
2023-07-20T23:42:41.961Z,100721.63
2023-07-20T23:45:10.167Z,100730.88
2023-07-20T23:47:38.675Z,100719.06
2023-07-20T23:50:07.298Z,100722.09
2023-07-20T23:52:35.457Z,100719.09
2023-07-20T23:55:04.074Z,100721.28
2023-07-20T23:57:31.965Z,100717.06
2023-07-20T23:59:59.531Z,100713.84
